createdAt,value
2018-09-25T00:00:37.592Z,48.50
2018-09-25T00:03:11.304Z,48.50
2018-09-25T00:05:44.936Z,48.50
2018-09-25T00:08:18.736Z,48.30
2018-09-25T00:10:52.914Z,48.30
2018-09-25T00:13:26.775Z,48.30
2018-09-25T00:16:00.595Z,47.70
2018-09-25T00:18:34.979Z,47.80
2018-09-25T00:21:08.697Z,47.90
2018-09-25T00:23:42.267Z,48.80
2018-09-25T00:26:15.969Z,47.90
2018-09-25T00:28:51.247Z,48.70
2018-09-25T00:31:24.952Z,48.10
2018-09-25T00:33:58.616Z,48.20
2018-09-25T00:36:32.131Z,47.90
2018-09-25T00:39:05.895Z,48.10
2018-09-25T00:41:39.368Z,48.10
2018-09-25T00:44:13.217Z,47.70
2018-09-25T00:46:47.907Z,47.50
2018-09-25T00:49:21.645Z,47.30
2018-09-25T00:51:55.993Z,47.40
2018-09-25T00:54:29.662Z,47.30
2018-09-25T00:57:03.192Z,47.50
2018-09-25T00:59:36.736Z,47.80
2018-09-25T01:02:10.439Z,47.60
2018-09-25T01:04:44.240Z,47.40
2018-09-25T01:07:17.947Z,47.40
2018-09-25T01:09:51.856Z,48.10
2018-09-25T01:12:25.325Z,47.70
2018-09-25T01:14:58.921Z,47.70
2018-09-25T01:17:32.663Z,47.80
2018-09-25T01:20:08.137Z,47.40
2018-09-25T01:22:42.039Z,47.10
2018-09-25T01:25:16.687Z,47.20
2018-09-25T01:27:50.668Z,47.10
2018-09-25T01:30:25.785Z,47.20
2018-09-25T01:32:59.390Z,47.40
2018-09-25T01:35:32.863Z,47.80
2018-09-25T01:38:06.408Z,47.80
2018-09-25T01:40:39.799Z,47.70
2018-09-25T01:43:13.681Z,48.40
2018-09-25T01:45:48.068Z,47.40
2018-09-25T01:48:21.797Z,47.80
2018-09-25T01:50:56.683Z,47.70
2018-09-25T01:53:30.270Z,47.60
2018-09-25T01:56:04.784Z,47.00
2018-09-25T01:58:38.291Z,47.40
2018-09-25T02:01:12.277Z,47.00
2018-09-25T02:03:46.958Z,47.30
2018-09-25T02:06:20.908Z,47.20
2018-09-25T02:08:54.327Z,47.50
2018-09-25T02:11:27.799Z,47.40
2018-09-25T02:14:01.505Z,47.70
2018-09-25T02:16:38.175Z,47.80
2018-09-25T02:19:12.786Z,47.60
2018-09-25T02:21:46.634Z,47.60
2018-09-25T02:24:20.374Z,47.50
2018-09-25T02:26:53.864Z,47.40
2018-09-25T02:29:27.641Z,47.30
2018-09-25T02:32:01.188Z,47.10
2018-09-25T02:34:35.063Z,46.90
2018-09-25T02:37:08.559Z,46.90
2018-09-25T02:39:42.846Z,46.70
2018-09-25T02:42:17.528Z,46.90
2018-09-25T02:44:52.050Z,47.30
2018-09-25T02:47:26.516Z,46.90
2018-09-25T02:50:00.337Z,46.90
2018-09-25T02:52:34.007Z,46.80
2018-09-25T02:55:07.872Z,46.80
2018-09-25T02:57:41.657Z,46.90
2018-09-25T03:00:15.508Z,46.90
2018-09-25T03:02:50.212Z,46.80
2018-09-25T03:05:24.970Z,46.70
2018-09-25T03:07:58.359Z,46.70
2018-09-25T03:10:32.689Z,47.20
2018-09-25T03:13:06.491Z,46.70
2018-09-25T03:15:40.099Z,46.60
2018-09-25T03:18:13.725Z,46.70
2018-09-25T03:20:48.117Z,46.70
2018-09-25T03:23:22.604Z,46.70
2018-09-25T03:25:57.484Z,46.60
2018-09-25T03:28:31.443Z,46.60
2018-09-25T03:31:05.175Z,46.50
2018-09-25T03:33:39.129Z,46.60
2018-09-25T03:36:12.547Z,46.60
2018-09-25T03:38:46.211Z,46.60
2018-09-25T03:41:19.767Z,46.70
2018-09-25T03:43:53.423Z,46.40
2018-09-25T03:46:26.871Z,46.40
2018-09-25T03:49:00.502Z,46.40
2018-09-25T03:51:33.955Z,46.50
2018-09-25T03:54:08.087Z,46.50
2018-09-25T03:56:41.760Z,46.40
2018-09-25T03:59:15.097Z,46.50
2018-09-25T04:01:48.544Z,46.30
2018-09-25T04:04:22.007Z,46.40
2018-09-25T04:06:55.788Z,47.20
2018-09-25T04:09:29.358Z,46.40
2018-09-25T04:12:03.157Z,46.50
2018-09-25T04:14:36.902Z,46.40
2018-09-25T04:17:10.480Z,46.30
2018-09-25T04:19:43.924Z,46.20
2018-09-25T04:22:17.388Z,46.50
2018-09-25T04:24:50.847Z,46.20
2018-09-25T04:27:24.483Z,46.40
2018-09-25T04:29:57.927Z,46.50
2018-09-25T04:32:31.492Z,46.10
2018-09-25T04:35:04.891Z,45.90
2018-09-25T04:37:38.355Z,46.00
2018-09-25T04:40:11.893Z,45.00
2018-09-25T04:42:45.515Z,44.90
2018-09-25T04:45:19.082Z,44.60
2018-09-25T04:47:52.619Z,44.20
2018-09-25T04:50:26.203Z,44.00
2018-09-25T04:52:59.805Z,43.90
2018-09-25T04:55:33.155Z,44.50
2018-09-25T04:58:06.807Z,44.50
2018-09-25T05:00:40.219Z,45.00
2018-09-25T05:03:13.692Z,45.10
2018-09-25T05:05:47.103Z,45.00
2018-09-25T05:08:20.955Z,44.80
2018-09-25T05:10:54.492Z,45.10
2018-09-25T05:13:27.951Z,45.60
2018-09-25T05:16:01.243Z,45.50
2018-09-25T05:18:34.787Z,46.40
2018-09-25T05:21:08.228Z,45.70
2018-09-25T05:23:41.639Z,45.80
2018-09-25T05:26:15.279Z,45.70
2018-09-25T05:28:48.917Z,45.20
2018-09-25T05:31:22.468Z,45.90
2018-09-25T05:33:56.121Z,46.10
2018-09-25T05:36:29.608Z,46.10
2018-09-25T05:39:03.190Z,46.20
2018-09-25T05:41:36.917Z,46.10
2018-09-25T05:44:10.518Z,46.30
2018-09-25T05:46:44.735Z,46.40
2018-09-25T05:49:18.336Z,46.40
2018-09-25T05:51:51.793Z,46.40
2018-09-25T05:54:25.087Z,46.50
2018-09-25T05:56:58.521Z,46.70
2018-09-25T05:59:31.996Z,46.90
2018-09-25T06:02:05.426Z,46.80
2018-09-25T06:04:38.899Z,46.80
2018-09-25T06:07:12.364Z,46.90
2018-09-25T06:09:46.055Z,46.80
2018-09-25T06:12:19.559Z,46.90
2018-09-25T06:14:53.129Z,47.00
2018-09-25T06:17:26.886Z,47.00
2018-09-25T06:20:00.324Z,47.10
2018-09-25T06:22:33.911Z,47.20
2018-09-25T06:25:07.418Z,47.20
2018-09-25T06:27:40.791Z,47.10
2018-09-25T06:30:14.382Z,47.10
2018-09-25T06:32:48.079Z,47.00
2018-09-25T06:35:21.605Z,47.00
2018-09-25T06:37:55.035Z,47.10
2018-09-25T06:40:28.703Z,46.90
2018-09-25T06:43:02.068Z,47.10
2018-09-25T06:45:35.671Z,47.10
2018-09-25T06:48:09.146Z,46.90
2018-09-25T06:50:42.721Z,47.10
2018-09-25T06:53:16.034Z,47.10
2018-09-25T06:55:49.366Z,47.20
2018-09-25T06:58:22.922Z,47.20
2018-09-25T07:00:56.457Z,47.30
2018-09-25T07:03:29.935Z,47.30
2018-09-25T07:06:03.374Z,47.30
2018-09-25T07:08:36.952Z,47.30
2018-09-25T07:11:10.575Z,47.30
2018-09-25T07:13:44.013Z,47.30
2018-09-25T07:16:17.455Z,47.30
2018-09-25T07:18:51.176Z,47.30
2018-09-25T07:21:24.840Z,47.30
2018-09-25T07:23:58.279Z,47.30
2018-09-25T07:26:31.946Z,47.50
2018-09-25T07:29:05.377Z,47.50
2018-09-25T07:31:39.004Z,47.60
2018-09-25T07:34:12.584Z,47.70
2018-09-25T07:36:46.068Z,47.70
2018-09-25T07:39:19.520Z,47.70
2018-09-25T07:41:53.167Z,47.70
2018-09-25T07:44:26.767Z,47.70
2018-09-25T07:47:00.246Z,47.70
2018-09-25T07:49:33.596Z,47.60
2018-09-25T07:52:07.055Z,47.60
2018-09-25T07:54:40.525Z,47.70
2018-09-25T07:57:13.952Z,47.70
2018-09-25T07:59:47.510Z,47.70
2018-09-25T08:02:21.151Z,47.70
2018-09-25T08:04:54.620Z,47.80
2018-09-25T08:07:28.199Z,47.80
2018-09-25T08:10:01.680Z,47.90
2018-09-25T08:12:35.255Z,47.80
2018-09-25T08:15:08.831Z,47.90
2018-09-25T08:17:42.462Z,47.80
2018-09-25T08:20:15.944Z,47.80
2018-09-25T08:22:49.291Z,47.90
2018-09-25T08:25:22.895Z,47.80
2018-09-25T08:27:56.419Z,47.80
2018-09-25T08:30:30.062Z,47.90
2018-09-25T08:33:03.576Z,48.00
2018-09-25T08:35:36.964Z,48.00
2018-09-25T08:38:10.438Z,48.00
2018-09-25T08:40:43.842Z,48.00
2018-09-25T08:43:17.392Z,48.00
2018-09-25T08:45:50.846Z,48.10
2018-09-25T08:48:24.407Z,48.10
2018-09-25T08:50:57.861Z,48.20
2018-09-25T08:53:31.494Z,48.10
2018-09-25T08:56:04.842Z,48.10
2018-09-25T08:58:38.311Z,48.00
2018-09-25T09:01:11.888Z,48.00
2018-09-25T09:03:45.336Z,48.10
2018-09-25T09:06:18.832Z,48.00
2018-09-25T09:08:52.264Z,48.10
2018-09-25T09:11:25.839Z,48.10
2018-09-25T09:13:59.615Z,48.20
2018-09-25T09:16:33.059Z,48.20
2018-09-25T09:19:06.652Z,48.20
2018-09-25T09:21:40.128Z,48.20
2018-09-25T09:24:13.463Z,48.40
2018-09-25T09:26:46.908Z,48.40
2018-09-25T09:29:20.391Z,48.40
2018-09-25T09:31:53.726Z,48.40
2018-09-25T09:34:27.206Z,48.20
2018-09-25T09:37:00.935Z,48.30
2018-09-25T09:39:34.561Z,48.30
2018-09-25T09:42:08.009Z,48.20
2018-09-25T09:44:41.327Z,48.20
2018-09-25T09:47:14.759Z,48.30
2018-09-25T09:49:48.092Z,48.20
2018-09-25T09:52:21.513Z,48.20
2018-09-25T09:54:55.131Z,48.20
2018-09-25T09:57:28.729Z,48.30
2018-09-25T10:00:02.200Z,48.10
2018-09-25T10:02:35.718Z,48.10
2018-09-25T10:05:09.195Z,48.00
2018-09-25T10:07:42.655Z,48.10
2018-09-25T10:10:16.203Z,48.10
2018-09-25T10:12:49.827Z,48.10
2018-09-25T10:15:23.236Z,48.10
2018-09-25T10:17:56.720Z,48.00
2018-09-25T10:20:30.167Z,48.10
2018-09-25T10:23:03.827Z,48.10
2018-09-25T10:25:37.387Z,48.10
2018-09-25T10:28:10.775Z,48.20
2018-09-25T10:30:44.444Z,48.20
2018-09-25T10:33:17.924Z,48.20
2018-09-25T10:35:51.386Z,48.20
2018-09-25T10:38:24.870Z,48.20
2018-09-25T10:40:58.202Z,48.20
2018-09-25T10:43:31.689Z,48.40
2018-09-25T10:46:05.178Z,48.30
2018-09-25T10:48:38.680Z,48.50
2018-09-25T10:51:12.063Z,48.40
2018-09-25T10:53:45.863Z,48.90
2018-09-25T10:56:19.562Z,48.50
2018-09-25T10:58:52.784Z,48.40
2018-09-25T11:01:26.290Z,48.40
2018-09-25T11:03:59.800Z,48.00
2018-09-25T11:06:33.228Z,48.60
2018-09-25T11:09:06.898Z,48.50
2018-09-25T11:11:40.467Z,48.50
2018-09-25T11:14:14.130Z,48.60
2018-09-25T11:16:47.780Z,48.50
2018-09-25T11:19:21.396Z,48.60
2018-09-25T11:21:54.771Z,48.50
2018-09-25T11:24:29.271Z,48.70
2018-09-25T11:27:03.487Z,48.80
2018-09-25T11:29:37.119Z,50.10
2018-09-25T11:32:10.812Z,49.60
2018-09-25T11:34:44.316Z,49.30
2018-09-25T11:37:17.951Z,49.20
2018-09-25T11:39:51.424Z,49.20
2018-09-25T11:42:25.004Z,49.30
2018-09-25T11:44:58.807Z,49.50
2018-09-25T11:47:32.255Z,49.80
2018-09-25T11:50:05.599Z,50.60
2018-09-25T11:52:39.161Z,51.60
2018-09-25T11:55:12.688Z,50.60
2018-09-25T11:57:46.085Z,50.00
2018-09-25T12:00:19.663Z,50.00
2018-09-25T12:02:53.236Z,49.90
2018-09-25T12:05:26.683Z,49.90
2018-09-25T12:08:00.068Z,50.00
2018-09-25T12:10:33.375Z,50.10
2018-09-25T12:13:07.211Z,50.20
2018-09-25T12:15:40.695Z,50.20
2018-09-25T12:18:14.137Z,50.30
2018-09-25T12:20:47.599Z,50.20
2018-09-25T12:23:21.064Z,49.80
2018-09-25T12:25:54.639Z,50.00
2018-09-25T12:28:28.038Z,50.70
2018-09-25T12:31:01.656Z,50.00
2018-09-25T12:33:35.292Z,49.80
2018-09-25T12:36:08.768Z,49.70
2018-09-25T12:38:42.394Z,49.80
2018-09-25T12:41:15.956Z,49.70
2018-09-25T12:43:49.466Z,49.70
2018-09-25T12:46:23.196Z,49.70
2018-09-25T12:48:56.677Z,49.60
2018-09-25T12:51:30.175Z,49.70
2018-09-25T12:54:03.827Z,49.80
2018-09-25T12:56:37.450Z,49.70
2018-09-25T12:59:10.880Z,49.70
2018-09-25T13:01:44.572Z,49.70
2018-09-25T13:04:17.948Z,49.70
2018-09-25T13:06:51.464Z,49.70
2018-09-25T13:09:24.948Z,49.70
2018-09-25T13:11:58.409Z,49.80
2018-09-25T13:14:32.240Z,49.70
2018-09-25T13:17:05.731Z,49.90
2018-09-25T13:19:39.312Z,50.00
2018-09-25T13:22:12.659Z,50.50
2018-09-25T13:24:46.232Z,52.10
2018-09-25T13:27:19.735Z,51.40
2018-09-25T13:29:53.375Z,51.50
2018-09-25T13:32:26.874Z,52.20
2018-09-25T13:35:00.559Z,52.10
2018-09-25T13:37:34.137Z,51.70
2018-09-25T13:40:07.582Z,51.90
2018-09-25T13:42:41.256Z,52.00
2018-09-25T13:45:14.698Z,51.50
2018-09-25T13:47:48.136Z,51.00
2018-09-25T13:50:21.800Z,51.00
2018-09-25T13:52:55.435Z,50.70
2018-09-25T13:55:29.126Z,50.60
2018-09-25T13:58:02.527Z,50.70
2018-09-25T14:00:36.198Z,50.60
2018-09-25T14:03:09.667Z,50.60
2018-09-25T14:05:43.172Z,50.60
2018-09-25T14:08:16.800Z,50.50
2018-09-25T14:10:50.175Z,50.40
2018-09-25T14:13:23.647Z,50.30
2018-09-25T14:15:57.227Z,50.40
2018-09-25T14:18:30.760Z,50.30
2018-09-25T14:21:04.434Z,50.30
2018-09-25T14:23:37.972Z,50.40
2018-09-25T14:26:11.403Z,50.30
2018-09-25T14:28:44.875Z,50.30
2018-09-25T14:31:18.432Z,50.50
2018-09-25T14:33:51.881Z,50.40
2018-09-25T14:36:25.338Z,50.40
2018-09-25T14:38:58.812Z,50.40
2018-09-25T14:41:32.184Z,50.30
2018-09-25T14:44:05.691Z,50.30
2018-09-25T14:46:39.126Z,50.20
2018-09-25T14:49:12.726Z,50.30
2018-09-25T14:51:46.337Z,50.10
2018-09-25T14:54:19.954Z,50.20
2018-09-25T14:56:53.519Z,50.20
2018-09-25T14:59:27.334Z,50.20
2018-09-25T15:02:00.900Z,50.20
2018-09-25T15:04:34.331Z,50.20
2018-09-25T15:07:07.863Z,50.20
2018-09-25T15:09:41.494Z,50.20
2018-09-25T15:12:14.912Z,50.20
2018-09-25T15:14:48.395Z,50.20
2018-09-25T15:17:21.851Z,50.00
2018-09-25T15:19:55.156Z,50.00
2018-09-25T15:22:28.699Z,50.50
2018-09-25T15:25:02.228Z,49.90
2018-09-25T15:27:35.903Z,49.90
2018-09-25T15:30:09.307Z,49.80
2018-09-25T15:32:42.947Z,49.90
2018-09-25T15:35:16.466Z,49.90
2018-09-25T15:37:50.023Z,49.90
2018-09-25T15:40:23.475Z,51.30
2018-09-25T15:42:57.040Z,50.70
2018-09-25T15:45:30.396Z,50.30
2018-09-25T15:48:03.994Z,50.40
2018-09-25T15:50:37.384Z,50.40
2018-09-25T15:53:10.851Z,50.50
2018-09-25T15:55:44.183Z,50.40
2018-09-25T15:58:17.609Z,50.40
2018-09-25T16:00:51.232Z,50.50
2018-09-25T16:03:24.714Z,50.50
2018-09-25T16:05:58.404Z,50.30
2018-09-25T16:08:31.888Z,51.00
2018-09-25T16:11:05.577Z,51.30
2018-09-25T16:13:39.115Z,51.90
2018-09-25T16:16:12.821Z,51.20
2018-09-25T16:18:46.275Z,51.20
2018-09-25T16:21:19.706Z,51.10
2018-09-25T16:23:53.230Z,51.10
2018-09-25T16:26:26.780Z,51.10
2018-09-25T16:29:00.133Z,50.80
2018-09-25T16:31:33.587Z,50.60
2018-09-25T16:34:07.031Z,50.70
2018-09-25T16:36:40.468Z,51.00
2018-09-25T16:39:14.856Z,51.00
2018-09-25T16:41:48.804Z,50.90
2018-09-25T16:44:22.363Z,50.90
2018-09-25T16:46:55.824Z,50.90
2018-09-25T16:49:29.247Z,50.70
2018-09-25T16:52:02.921Z,50.80
2018-09-25T16:54:36.487Z,50.80
2018-09-25T16:57:09.927Z,50.80
2018-09-25T16:59:43.623Z,50.80
2018-09-25T17:02:17.194Z,50.80
2018-09-25T17:04:50.820Z,50.80
2018-09-25T17:07:24.238Z,50.70
2018-09-25T17:09:57.665Z,50.80
2018-09-25T17:12:31.196Z,50.70
2018-09-25T17:15:04.816Z,50.80
2018-09-25T17:17:38.452Z,50.90
2018-09-25T17:20:11.891Z,50.90
2018-09-25T17:22:45.496Z,50.90
2018-09-25T17:25:19.059Z,50.90
2018-09-25T17:27:52.650Z,50.70
2018-09-25T17:30:26.212Z,50.70
2018-09-25T17:32:59.560Z,50.60
2018-09-25T17:35:32.855Z,50.50
2018-09-25T17:38:06.430Z,50.40
2018-09-25T17:40:40.015Z,50.30
2018-09-25T17:43:13.555Z,50.30
2018-09-25T17:45:47.082Z,50.30
2018-09-25T17:48:20.581Z,50.30
2018-09-25T17:50:54.317Z,50.30
2018-09-25T17:53:27.800Z,50.40
2018-09-25T17:56:08.359Z,50.70
2018-09-25T17:58:41.802Z,51.10
2018-09-25T18:01:15.276Z,50.70
2018-09-25T18:03:48.715Z,50.60
2018-09-25T18:06:22.411Z,50.30
2018-09-25T18:08:55.911Z,50.40
2018-09-25T18:11:29.478Z,50.40
2018-09-25T18:14:02.973Z,50.40
2018-09-25T18:16:36.547Z,50.40
2018-09-25T18:19:10.128Z,50.90
2018-09-25T18:21:43.728Z,50.70
2018-09-25T18:24:17.458Z,50.70
2018-09-25T18:26:50.986Z,50.70
2018-09-25T18:29:24.397Z,50.80
2018-09-25T18:31:57.872Z,50.80
2018-09-25T18:34:31.313Z,50.80
2018-09-25T18:37:04.903Z,50.90
2018-09-25T18:39:38.414Z,50.90
2018-09-25T18:42:11.780Z,50.80
2018-09-25T18:44:45.288Z,50.70
2018-09-25T18:47:18.918Z,50.80
2018-09-25T18:49:52.244Z,50.70
2018-09-25T18:52:25.900Z,51.40
2018-09-25T18:54:59.391Z,50.80
2018-09-25T18:57:32.960Z,50.80
2018-09-25T19:00:06.384Z,50.80
2018-09-25T19:02:40.051Z,50.80
2018-09-25T19:05:13.613Z,50.80
2018-09-25T19:07:47.082Z,50.80
2018-09-25T19:10:20.672Z,50.80
2018-09-25T19:12:54.188Z,50.70
2018-09-25T19:15:27.673Z,50.70
2018-09-25T19:18:01.036Z,50.70
2018-09-25T19:20:34.535Z,50.70
2018-09-25T19:23:08.025Z,50.60
2018-09-25T19:25:41.540Z,50.60
2018-09-25T19:28:15.338Z,50.60
2018-09-25T19:30:48.780Z,50.90
2018-09-25T19:33:22.256Z,50.80
2018-09-25T19:35:55.944Z,50.80
2018-09-25T19:38:29.163Z,50.70
2018-09-25T19:41:02.737Z,50.70
2018-09-25T19:43:36.304Z,50.70
2018-09-25T19:46:09.979Z,50.70
2018-09-25T19:48:43.476Z,50.70
2018-09-25T19:51:16.919Z,50.70
2018-09-25T19:53:50.240Z,50.90
2018-09-25T19:56:23.659Z,50.80
2018-09-25T19:58:57.155Z,50.90
2018-09-25T20:01:30.591Z,51.00
2018-09-25T20:04:04.078Z,51.10
2018-09-25T20:06:37.752Z,51.10
2018-09-25T20:09:13.457Z,51.20
2018-09-25T20:11:47.105Z,51.30
2018-09-25T20:14:20.775Z,51.30
2018-09-25T20:16:54.804Z,51.30
2018-09-25T20:19:28.340Z,51.30
2018-09-25T20:22:01.587Z,51.20
2018-09-25T20:24:34.900Z,51.80
2018-09-25T20:27:08.492Z,51.20
2018-09-25T20:29:41.844Z,51.20
2018-09-25T20:32:15.527Z,51.10
2018-09-25T20:34:49.184Z,51.00
2018-09-25T20:37:22.717Z,51.00
2018-09-25T20:39:56.158Z,51.10
2018-09-25T20:42:29.728Z,51.10
2018-09-25T20:45:03.079Z,51.10
2018-09-25T20:47:36.725Z,51.10
2018-09-25T20:50:10.299Z,51.00
2018-09-25T20:52:43.784Z,51.10
2018-09-25T20:55:17.271Z,51.00
2018-09-25T20:57:51.036Z,51.00
2018-09-25T21:00:24.470Z,50.90
2018-09-25T21:02:57.983Z,50.90
2018-09-25T21:05:31.359Z,50.90
2018-09-25T21:08:04.925Z,51.50
2018-09-25T21:10:38.511Z,50.90
2018-09-25T21:13:12.028Z,50.90
2018-09-25T21:15:45.552Z,51.00
2018-09-25T21:18:19.022Z,51.00
2018-09-25T21:20:52.462Z,51.00
2018-09-25T21:23:26.052Z,51.00
2018-09-25T21:25:59.769Z,51.00
2018-09-25T21:28:33.426Z,51.00
2018-09-25T21:31:09.880Z,51.00
2018-09-25T21:33:43.500Z,50.90
2018-09-25T21:36:16.939Z,50.90
2018-09-25T21:38:50.567Z,50.90
2018-09-25T21:41:24.244Z,50.90
2018-09-25T21:43:57.883Z,50.90
2018-09-25T21:46:31.472Z,50.90
2018-09-25T21:49:05.099Z,50.90
2018-09-25T21:51:38.671Z,50.90
2018-09-25T21:54:12.287Z,50.90
2018-09-25T21:56:45.652Z,50.90
2018-09-25T21:59:19.276Z,50.90
2018-09-25T22:01:53.049Z,50.90
2018-09-25T22:04:26.524Z,50.90
2018-09-25T22:07:00.056Z,50.90
2018-09-25T22:09:33.750Z,50.80
2018-09-25T22:12:07.086Z,50.80
2018-09-25T22:14:40.595Z,51.50
2018-09-25T22:17:14.235Z,50.80
2018-09-25T22:19:47.807Z,50.80
2018-09-25T22:22:21.326Z,50.70
2018-09-25T22:24:54.900Z,50.70
2018-09-25T22:27:28.351Z,50.70
2018-09-25T22:30:03.111Z,50.70
2018-09-25T22:32:37.085Z,50.70
2018-09-25T22:35:10.612Z,50.70
2018-09-25T22:37:44.155Z,50.70
2018-09-25T22:40:17.985Z,50.70
2018-09-25T22:42:51.787Z,50.70
2018-09-25T22:45:25.285Z,50.70
2018-09-25T22:47:58.615Z,50.70
2018-09-25T22:50:32.068Z,50.70
2018-09-25T22:53:05.395Z,50.70
2018-09-25T22:55:38.971Z,50.70
2018-09-25T22:58:13.084Z,50.80
2018-09-25T23:00:46.553Z,50.80
2018-09-25T23:03:20.207Z,50.70
2018-09-25T23:05:53.991Z,50.80
2018-09-25T23:08:28.425Z,50.80
2018-09-25T23:11:03.035Z,50.70
2018-09-25T23:13:36.522Z,51.40
2018-09-25T23:16:10.748Z,50.70
2018-09-25T23:18:44.540Z,50.70
2018-09-25T23:21:18.182Z,50.70
2018-09-25T23:23:51.843Z,50.70
2018-09-25T23:26:25.469Z,50.70
2018-09-25T23:28:59.699Z,50.70
2018-09-25T23:31:33.457Z,50.70
2018-09-25T23:34:07.034Z,50.70
2018-09-25T23:36:41.557Z,51.30
2018-09-25T23:39:13.955Z,50.70
2018-09-25T23:41:47.146Z,50.70
2018-09-25T23:44:20.451Z,50.70
2018-09-25T23:46:55.022Z,50.70
2018-09-25T23:49:31.390Z,50.70
2018-09-25T23:52:03.743Z,50.70
2018-09-25T23:54:38.312Z,50.70
2018-09-25T23:57:10.726Z,50.60
2018-09-25T23:59:57.291Z,50.60
